Orbital elements of COSMOS 970 DEB
| Launched | 20 December 1977 |
| Flight ended | – |
| Launch site | Tyuratam Missile and Space Center, Kazakhstan (Also known as Baikonur Cosmodrome) |
| Owner | Commonwealth of Independent States (former USSR) |
| NORAD ID | 12863 |
| Date fetched |
Epoch osculation |
Inc. [°] |
Ecc. | RA asc node [hr] |
Arg Peri. [°] |
Mean anom [°] |
Mean motion [rev/day] |
Abs. mag |
| Date fetched |
Epoch osculation |
Inc. [°] |
Ecc. | RA asc node [hr] |
Arg Peri. [°] |
Mean anom [°] |
Mean motion [rev/day] |
Abs. mag |
| 2026 May 03 17:57 | 2026 Apr 30 10:48:17 | 65.7824 | 0.00521 | 15.4179 | 102.4694 | 17.0394 | 13.68746 | – |
| 2026 May 02 17:57 | 2026 Apr 30 10:48:17 | 65.7824 | 0.00521 | 15.4179 | 102.4694 | 17.0394 | 13.68746 | – |
| 2026 May 01 17:56 | 2026 Apr 30 10:48:17 | 65.7824 | 0.00521 | 15.4179 | 102.4694 | 17.0394 | 13.68746 | – |
| 2026 Apr 30 17:56 | 2026 Apr 30 10:48:17 | 65.7824 | 0.00521 | 15.4179 | 102.4694 | 17.0394 | 13.68746 | – |
| 2026 Apr 29 17:57 | 2026 Apr 24 12:48:48 | 65.7822 | 0.00525 | 16.3839 | 105.6322 | 17.0394 | 13.68746 | – |
| 2026 Apr 28 17:56 | 2026 Apr 24 12:48:48 | 65.7822 | 0.00525 | 16.3839 | 105.6322 | 17.0394 | 13.68746 | – |
| 2026 Apr 27 17:58 | 2026 Apr 24 12:48:48 | 65.7822 | 0.00525 | 16.3839 | 105.6322 | 17.0394 | 13.68746 | – |
| 2026 Apr 26 17:58 | 2026 Apr 24 12:48:48 | 65.7822 | 0.00525 | 16.3839 | 105.6322 | 17.0394 | 13.68746 | – |
| 2026 Apr 25 17:58 | 2026 Apr 24 12:48:48 | 65.7822 | 0.00525 | 16.3839 | 105.6322 | 17.0394 | 13.68746 | – |
| 2026 Apr 24 17:59 | 2026 Apr 24 12:48:48 | 65.7822 | 0.00525 | 16.3839 | 105.6322 | 17.0394 | 13.68746 | – |
| 2026 Apr 23 17:57 | 2026 Apr 19 04:28:01 | 65.7819 | 0.00528 | 17.2571 | 108.4617 | 17.0394 | 13.68746 | – |
| 2026 Apr 22 17:57 | 2026 Apr 19 04:28:01 | 65.7819 | 0.00528 | 17.2571 | 108.4617 | 17.0394 | 13.68746 | – |
| 2026 Apr 21 17:57 | 2026 Apr 19 04:28:01 | 65.7819 | 0.00528 | 17.2571 | 108.4617 | 17.0394 | 13.68746 | – |
| 2026 Apr 20 17:57 | 2026 Apr 19 04:28:01 | 65.7819 | 0.00528 | 17.2571 | 108.4617 | 17.0394 | 13.68746 | – |
| 2026 Apr 19 17:58 | 2026 Apr 19 04:28:01 | 65.7819 | 0.00528 | 17.2571 | 108.4617 | 17.0394 | 13.68746 | – |
| 2026 Apr 18 17:56 | 2026 Apr 13 06:24:49 | 65.7818 | 0.00531 | 18.2235 | 111.5518 | 17.0394 | 13.68746 | – |
| 2026 Apr 16 17:57 | 2026 Apr 13 06:24:49 | 65.7818 | 0.00531 | 18.2235 | 111.5518 | 17.0394 | 13.68746 | – |
| 2026 Apr 14 17:57 | 2026 Apr 13 06:24:49 | 65.7818 | 0.00531 | 18.2235 | 111.5518 | 17.0394 | 13.68746 | – |
| 2026 Apr 13 17:57 | 2026 Apr 13 06:24:49 | 65.7818 | 0.00531 | 18.2235 | 111.5518 | 17.0394 | 13.68746 | – |
| 2026 Apr 12 17:57 | 2026 Apr 08 07:10:00 | 65.7818 | 0.00532 | 19.0349 | 114.1299 | 17.0394 | 13.68746 | – |
| 2026 Apr 11 17:57 | 2026 Apr 08 07:10:00 | 65.7818 | 0.00532 | 19.0349 | 114.1299 | 17.0394 | 13.68746 | – |
| 2026 Apr 10 17:58 | 2026 Apr 08 07:10:00 | 65.7818 | 0.00532 | 19.0349 | 114.1299 | 17.0394 | 13.68746 | – |
| 2026 Apr 09 18:01 | 2026 Apr 08 07:10:00 | 65.7818 | 0.00532 | 19.0349 | 114.1299 | 17.0394 | 13.68746 | – |
| 2026 Apr 08 17:57 | 2026 Apr 08 07:10:00 | 65.7818 | 0.00532 | 19.0349 | 114.1299 | 17.0394 | 13.68746 | – |
| 2026 Apr 07 17:57 | 2026 Apr 01 20:39:57 | 65.7825 | 0.00533 | 20.0860 | 117.5790 | 17.0394 | 13.68746 | – |
| 2026 Apr 06 17:57 | 2026 Apr 01 20:39:57 | 65.7825 | 0.00533 | 20.0860 | 117.5790 | 17.0394 | 13.68746 | – |